Time;durP1;ratioP1;P1;durP2;ratioP2;P2;SDS_P1;SDS_P2;PMS_P1;PMS_P2;Temp;Humidity;BMP_temperature;BMP_pressure;BME280_temperature;BME280_humidity;BME280_pressure;Samples;Min_cycle;Max_cycle;Signal;HPM_P1;HPM_P2
2021/12/18 00:00:34;;;;;;;0.57;0.57;;;;;;;22.86;31.97;98492.69;4973786;28;20432;-29
2021/12/18 00:02:59;;;;;;;0.40;0.40;;;;;;;22.86;31.88;98490.06;5007981;28;20028;-34
2021/12/18 00:05:24;;;;;;;0.40;0.40;;;;;;;22.86;31.93;98488.31;4989925;28;20029;-31
2021/12/18 00:07:50;;;;;;;0.50;0.50;;;;;;;22.85;31.95;98486.59;5008914;28;20030;-30
2021/12/18 00:10:20;;;;;;;0.50;0.50;;;;;;;22.85;32.00;98489.22;5005315;28;20048;-31
2021/12/18 00:12:49;;;;;;;0.30;0.30;;;;;;;22.86;31.77;98487.44;5008494;28;20025;-30
2021/12/18 00:15:15;;;;;;;0.40;0.40;;;;;;;22.85;31.80;98486.59;4992667;28;20057;-26
2021/12/18 00:17:40;;;;;;;0.40;0.40;;;;;;;22.85;31.82;98494.44;4991433;28;20451;-30
2021/12/18 00:20:06;;;;;;;0.75;0.70;;;;;;;22.84;31.76;98493.56;4996540;28;20036;-31
2021/12/18 00:22:31;;;;;;;0.63;0.63;;;;;;;22.86;31.68;98492.69;5010236;28;20035;-31
2021/12/18 00:24:57;;;;;;;0.68;0.68;;;;;;;22.85;31.71;98486.59;4991028;28;20033;-29
2021/12/18 00:27:22;;;;;;;0.38;0.38;;;;;;;22.84;32.02;98484.88;4974303;28;20033;-30
2021/12/18 00:29:48;;;;;;;0.50;0.50;;;;;;;22.84;31.89;98490.09;5010101;28;20500;-32
2021/12/18 00:32:13;;;;;;;0.40;0.40;;;;;;;22.80;31.79;98467.50;4962708;28;20033;-31
2021/12/18 00:34:39;;;;;;;0.40;0.40;;;;;;;22.83;31.94;98472.66;5010336;28;20032;-29
2021/12/18 00:37:05;;;;;;;0.50;0.50;;;;;;;22.83;31.93;98483.13;5008557;28;20057;-30
2021/12/18 00:39:32;;;;;;;0.47;0.47;;;;;;;22.84;31.93;98490.09;4968266;28;20022;-29
2021/12/18 00:42:08;;;;;;;1.30;0.82;;;;;;;22.85;31.92;98491.84;5008167;28;20021;-30
2021/12/18 00:44:34;;;;;;;0.57;0.57;;;;;;;22.84;31.84;98495.34;5010423;28;20057;-29
2021/12/18 00:47:00;;;;;;;0.70;0.70;;;;;;;22.83;31.97;98490.97;5010244;28;20492;-31
2021/12/18 00:49:25;;;;;;;0.50;0.50;;;;;;;22.83;32.02;98490.97;5009077;28;20119;-29
2021/12/18 00:51:50;;;;;;;0.70;0.70;;;;;;;22.82;31.72;98484.91;5008259;28;20109;-31
2021/12/18 00:54:16;;;;;;;0.60;0.60;;;;;;;22.82;31.79;98484.91;5010009;28;20317;-29
2021/12/18 00:56:41;;;;;;;0.80;0.63;;;;;;;22.82;31.73;98490.13;5009345;28;20022;-28
2021/12/18 00:59:07;;;;;;;0.82;0.60;;;;;;;22.81;31.84;98495.38;5010555;28;20037;-29
2021/12/18 01:01:32;;;;;;;0.82;0.82;;;;;;;22.82;31.90;98491.88;5006513;28;20026;-33
2021/12/18 01:03:58;;;;;;;1.00;0.85;;;;;;;22.82;31.69;98499.69;4991018;28;20030;-29
2021/12/18 01:06:23;;;;;;;0.80;0.80;;;;;;;22.82;31.68;98507.53;5010749;28;20494;-33
2021/12/18 01:08:55;;;;;;;0.85;0.70;;;;;;;22.77;31.72;98505.00;5013392;28;20143;-30
2021/12/18 01:24:35;;;;;;;0.63;0.63;;;;;;;22.79;31.75;98497.13;5012569;28;20159;-28
2021/12/18 01:27:00;;;;;;;0.70;0.70;;;;;;;22.79;31.82;98495.38;5014615;28;20037;-28
2021/12/18 01:29:26;;;;;;;0.93;0.60;;;;;;;22.79;31.86;98497.13;5010802;28;20392;-29
2021/12/18 01:31:51;;;;;;;0.60;0.60;;;;;;;22.78;31.59;98492.78;4994858;28;20235;-29
2021/12/18 01:34:17;;;;;;;0.47;0.47;;;;;;;22.79;31.87;98498.00;5014470;28;20056;-30
2021/12/18 01:36:43;;;;;;;0.65;0.50;;;;;;;22.79;31.62;98486.66;5004144;28;20032;-31
2021/12/18 01:39:08;;;;;;;0.65;0.60;;;;;;;22.79;31.92;98491.91;5008364;28;20175;-31
2021/12/18 01:41:50;;;;;;;0.35;0.35;;;;;;;22.80;31.70;98498.88;5013194;28;20415;-31
2021/12/18 01:51:13;;;;;;;0.50;0.50;;;;;;;22.81;31.56;98505.81;5012197;28;20610;-33
2021/12/18 01:52:32;;;;;;;0.40;0.40;;;;;;;22.80;31.83;98493.66;5011498;28;20032;-32
2021/12/18 01:54:58;;;;;;;0.68;0.50;;;;;;;22.79;31.67;98490.16;4996554;28;20038;-29
2021/12/18 01:57:23;;;;;;;0.63;0.63;;;;;;;22.80;31.73;98496.25;5010054;28;20045;-28
2021/12/18 01:59:49;;;;;;;0.38;0.38;;;;;;;22.79;31.73;98497.13;5011348;28;20030;-30
2021/12/18 02:02:15;;;;;;;0.60;0.60;;;;;;;22.79;31.89;98503.22;5012112;28;20384;-30
2021/12/18 02:04:40;;;;;;;0.50;0.50;;;;;;;22.71;31.79;98495.50;5012916;28;20021;-30
2021/12/18 02:07:07;;;;;;;0.50;0.50;;;;;;;22.79;31.67;98502.34;4979758;28;20034;-31
2021/12/18 02:10:02;;;;;;;0.95;0.85;;;;;;;22.79;31.88;98497.13;5008348;28;20040;-30
2021/12/18 02:12:20;;;;;;;0.57;0.57;;;;;;;22.79;31.64;98497.13;5010488;28;20062;-30
2021/12/18 02:20:24;;;;;;;0.52;0.52;;;;;;;22.79;31.81;98500.63;5011880;28;20455;-29
2021/12/18 02:22:51;;;;;;;0.50;0.50;;;;;;;22.78;31.79;98498.91;4998870;28;20064;-28
2021/12/18 02:25:17;;;;;;;0.85;0.63;;;;;;;22.78;31.82;98505.84;5011621;28;20033;-31
2021/12/18 02:27:42;;;;;;;0.77;0.77;;;;;;;22.79;31.85;98502.34;4994669;28;20036;-28
2021/12/18 02:30:10;;;;;;;0.73;0.73;;;;;;;22.78;31.79;98503.25;5010260;28;20034;-32
2021/12/18 02:32:36;;;;;;;0.60;0.57;;;;;;;22.78;31.44;98503.25;5009866;28;20017;-30
2021/12/18 02:35:05;;;;;;;1.05;0.85;;;;;;;22.77;31.57;98502.41;5010259;28;20036;-29
2021/12/18 02:37:33;;;;;;;0.85;0.70;;;;;;;22.77;31.74;98499.78;5012971;28;20034;-29
2021/12/18 02:42:24;;;;;;;1.05;1.00;;;;;;;22.78;31.65;98490.19;5011095;28;20025;-31
2021/12/18 02:44:51;;;;;;;0.70;0.70;;;;;;;22.77;31.79;98486.72;5010730;28;20037;-28
2021/12/18 02:47:17;;;;;;;0.50;0.50;;;;;;;22.78;31.59;98484.94;4996204;28;20162;-29
2021/12/18 02:49:48;;;;;;;0.98;0.70;;;;;;;22.78;31.68;98484.94;4991240;28;20037;-30
2021/12/18 02:52:14;;;;;;;0.70;0.70;;;;;;;22.77;31.71;98488.47;4998595;28;20087;-28
2021/12/18 02:54:40;;;;;;;1.02;0.95;;;;;;;22.78;31.35;98484.94;5011159;28;20037;-28
2021/12/18 02:57:05;;;;;;;0.70;0.70;;;;;;;22.77;31.57;98486.72;4995850;28;20048;-30
2021/12/18 02:59:41;;;;;;;0.80;0.80;;;;;;;22.77;31.43;98485.84;5011188;28;20087;-32
2021/12/18 03:02:07;;;;;;;0.70;0.70;;;;;;;22.77;31.58;98483.22;5009426;28;20113;-31
2021/12/18 03:04:35;;;;;;;0.65;0.65;;;;;;;22.77;31.49;98483.22;5011385;28;20033;-28
2021/12/18 03:07:03;;;;;;;0.60;0.60;;;;;;;22.76;31.45;98481.50;5010675;28;20021;-29
2021/12/18 03:21:22;;;;;;;0.40;0.40;;;;;;;22.77;31.78;98483.22;5010884;28;20112;-31
2021/12/18 03:23:36;;;;;;;0.50;0.50;;;;;;;22.75;31.49;98480.63;5009015;28;20029;-26
2021/12/18 03:26:01;;;;;;;0.60;0.60;;;;;;;22.74;31.73;98481.53;4997068;28;20029;-29
2021/12/18 03:28:28;;;;;;;0.68;0.68;;;;;;;22.74;31.74;98484.13;5011188;28;20387;-29
2021/12/18 03:30:55;;;;;;;0.68;0.68;;;;;;;22.75;31.46;98474.53;4993728;28;20021;-28
2021/12/18 03:33:20;;;;;;;0.80;0.80;;;;;;;22.75;31.49;98474.53;5006023;28;20025;-31
2021/12/18 03:35:46;;;;;;;0.75;0.75;;;;;;;22.75;31.74;98474.53;5010470;28;20700;-32
2021/12/18 03:38:12;;;;;;;0.80;0.80;;;;;;;22.74;31.50;98476.28;4994986;28;20042;-29
2021/12/18 03:40:37;;;;;;;0.60;0.60;;;;;;;22.74;31.59;98471.06;4994991;28;20037;-28
2021/12/18 03:43:03;;;;;;;0.60;0.60;;;;;;;22.74;31.53;98472.81;5009097;28;20026;-30
2021/12/18 03:45:28;;;;;;;0.40;0.40;;;;;;;22.74;31.47;98476.28;5010299;28;20033;-31
2021/12/18 03:47:53;;;;;;;0.70;0.70;;;;;;;22.74;31.72;98478.03;5009743;28;20483;-25
2021/12/18 03:50:19;;;;;;;0.52;0.52;;;;;;;22.74;31.77;98483.25;5009768;28;20029;-29
2021/12/18 03:52:44;;;;;;;0.90;0.90;;;;;;;22.74;31.65;98478.03;5007098;28;20056;-28
2021/12/18 03:55:10;;;;;;;0.82;0.80;;;;;;;22.73;31.66;98482.41;4995448;28;20033;-29
2021/12/18 03:57:35;;;;;;;1.00;0.90;;;;;;;22.74;31.48;98480.66;5008652;28;20029;-31
2021/12/18 04:00:01;;;;;;;0.75;0.75;;;;;;;22.73;31.44;98474.56;5009980;28;20037;-30
2021/12/18 04:02:26;;;;;;;1.17;0.70;;;;;;;22.72;31.64;98475.44;4988978;28;20102;-31
2021/12/18 04:04:51;;;;;;;0.68;0.68;;;;;;;22.73;31.67;98471.97;5010338;28;20570;-29
2021/12/18 04:07:17;;;;;;;0.77;0.77;;;;;;;22.74;31.59;98472.81;5011095;28;20423;-30
2021/12/18 04:09:42;;;;;;;0.98;0.98;;;;;;;22.74;31.61;98475.41;5008619;28;20029;-30
2021/12/18 04:12:08;;;;;;;0.80;0.80;;;;;;;22.74;31.44;98478.03;4976818;28;20124;-30
2021/12/18 04:14:34;;;;;;;0.80;0.80;;;;;;;22.73;31.38;98478.94;5009960;28;20029;-31
2021/12/18 04:16:59;;;;;;;0.82;0.80;;;;;;;22.72;31.41;98480.66;4992141;28;20558;-30
2021/12/18 04:19:25;;;;;;;0.60;0.60;;;;;;;22.73;31.45;98473.69;5011175;28;20053;-30
2021/12/18 04:21:50;;;;;;;0.77;0.77;;;;;;;22.73;31.75;98476.31;5009035;28;20786;-31
2021/12/18 04:24:15;;;;;;;0.80;0.80;;;;;;;22.73;31.41;98481.53;4992041;28;20082;-28
2021/12/18 04:26:41;;;;;;;1.13;0.80;;;;;;;22.67;31.49;98467.69;4992253;28;20406;-30
2021/12/18 04:29:06;;;;;;;0.80;0.80;;;;;;;22.74;31.41;98478.03;5009997;28;20025;-31
2021/12/18 04:31:33;;;;;;;1.10;1.00;;;;;;;22.72;31.62;98480.66;5007808;28;20033;-29
2021/12/18 04:33:58;;;;;;;0.65;0.65;;;;;;;22.73;31.54;98473.69;4998745;28;20537;-28
2021/12/18 04:36:24;;;;;;;0.90;0.90;;;;;;;22.73;31.51;98476.31;5011089;28;20034;-29
2021/12/18 04:38:49;;;;;;;0.80;0.80;;;;;;;22.71;31.36;98471.97;5010410;28;20099;-27
2021/12/18 04:41:22;;;;;;;0.90;0.90;;;;;;;22.71;31.65;98471.97;4989870;28;20033;-30
2021/12/18 04:43:47;;;;;;;0.80;0.80;;;;;;;22.71;31.34;98474.59;5011396;28;20126;-30
2021/12/18 04:46:13;;;;;;;1.15;1.05;;;;;;;22.73;31.52;98478.94;4995624;28;20084;-31
2021/12/18 04:48:38;;;;;;;0.82;0.80;;;;;;;22.72;31.53;98475.44;5013254;28;20067;-26
2021/12/18 04:51:04;;;;;;;1.13;1.02;;;;;;;22.70;31.61;98472.84;5012301;28;20033;-31
2021/12/18 04:53:29;;;;;;;1.02;0.98;;;;;;;22.72;31.65;98467.59;5011385;28;20454;-28
2021/12/18 04:55:54;;;;;;;0.80;0.63;;;;;;;22.70;31.21;98472.00;5011926;28;20033;-29
2021/12/18 04:58:20;;;;;;;0.90;0.90;;;;;;;22.70;31.61;98467.63;5012392;28;20399;-28
2021/12/18 05:00:47;;;;;;;0.80;0.80;;;;;;;22.71;31.58;98464.13;5014118;28;20049;-30
2021/12/18 05:03:14;;;;;;;0.80;0.80;;;;;;;22.72;31.62;98464.97;5011793;28;20021;-29
2021/12/18 05:05:39;;;;;;;0.90;0.70;;;;;;;22.71;31.62;98461.53;5011712;28;20168;-28
2021/12/18 05:08:05;;;;;;;0.73;0.73;;;;;;;22.71;31.52;98469.38;5010983;28;20055;-33
2021/12/18 05:10:30;;;;;;;0.73;0.68;;;;;;;22.71;31.40;98469.38;5014161;28;20018;-31
2021/12/18 05:12:56;;;;;;;0.98;0.88;;;;;;;22.71;31.32;98469.38;5012578;28;20565;-30
2021/12/18 05:15:22;;;;;;;1.10;1.00;;;;;;;22.71;31.37;98474.59;5013222;28;20045;-28
2021/12/18 05:17:47;;;;;;;0.95;0.95;;;;;;;22.71;31.67;98476.31;4995792;28;20071;-30
2021/12/18 05:20:13;;;;;;;1.20;1.10;;;;;;;22.70;31.52;98472.84;5012902;28;20408;-29
2021/12/18 05:22:38;;;;;;;0.88;0.88;;;;;;;22.71;31.46;98473.72;5012660;28;20034;-30
2021/12/18 05:25:05;;;;;;;0.77;0.77;;;;;;;22.70;31.34;98472.84;5013782;28;20030;-30
2021/12/18 05:27:30;;;;;;;1.48;1.05;;;;;;;22.70;31.57;98472.84;4993530;28;20029;-33
2021/12/18 05:29:55;;;;;;;1.27;1.00;;;;;;;22.70;31.59;98472.84;5010948;28;20037;-30
2021/12/18 05:32:21;;;;;;;0.70;0.70;;;;;;;22.64;31.43;98462.47;4994176;28;20033;-30
2021/12/18 05:34:46;;;;;;;1.23;1.13;;;;;;;22.70;31.38;98475.44;4979270;28;20034;-30
2021/12/18 05:37:20;;;;;;;1.33;0.93;;;;;;;22.70;31.58;98482.44;5008857;28;20048;-29
2021/12/18 05:39:46;;;;;;;0.80;0.80;;;;;;;22.70;31.50;98479.84;5010822;28;20033;-28
2021/12/18 05:42:12;;;;;;;1.00;0.90;;;;;;;22.69;31.51;98476.34;5011103;28;20014;-28
2021/12/18 05:44:37;;;;;;;0.70;0.70;;;;;;;22.67;31.45;98472.91;4992684;28;20605;-30
2021/12/18 05:47:03;;;;;;;1.88;0.77;;;;;;;22.69;31.59;98468.50;4977825;28;20030;-32
2021/12/18 05:49:29;;;;;;;0.80;0.80;;;;;;;22.69;31.37;98473.72;5009674;28;20103;-36
2021/12/18 05:51:54;;;;;;;0.80;0.52;;;;;;;22.68;31.45;98479.84;4977380;28;20033;-31
2021/12/18 05:54:19;;;;;;;0.68;0.68;;;;;;;22.69;31.74;98476.34;4995553;28;20030;-28
2021/12/18 05:56:45;;;;;;;1.00;0.80;;;;;;;22.70;31.62;98472.00;5011420;28;20068;-29
2021/12/18 05:59:10;;;;;;;1.02;0.90;;;;;;;22.70;31.32;98485.06;5010653;28;20434;-28
2021/12/18 06:01:36;;;;;;;0.52;0.52;;;;;;;22.69;31.54;98476.34;4983423;28;20033;-29
2021/12/18 06:04:01;;;;;;;0.43;0.43;;;;;;;22.69;31.53;98472.88;5008686;28;20029;-28
2021/12/18 06:06:26;;;;;;;0.77;0.77;;;;;;;22.69;31.41;98486.78;5010528;28;20021;-32
2021/12/18 06:08:52;;;;;;;0.50;0.50;;;;;;;22.69;31.66;98481.56;5010892;28;20041;-32
2021/12/18 06:11:19;;;;;;;0.60;0.60;;;;;;;22.69;31.47;98478.13;5012471;28;20029;-29
2021/12/18 06:13:49;;;;;;;0.80;0.60;;;;;;;22.69;31.46;98485.94;4995318;28;20649;-30
2021/12/18 06:16:15;;;;;;;0.47;0.47;;;;;;;22.69;31.42;98481.56;4982315;28;20061;-30
2021/12/18 06:18:42;;;;;;;0.70;0.68;;;;;;;22.70;31.63;98487.69;5009839;28;20109;-31
2021/12/18 06:21:09;;;;;;;0.50;0.50;;;;;;;22.69;31.58;98486.78;5010839;28;20028;-31
2021/12/18 06:23:34;;;;;;;0.55;0.40;;;;;;;22.70;31.66;98495.50;4976249;28;20026;-30
2021/12/18 06:26:00;;;;;;;0.50;0.50;;;;;;;22.70;31.38;98496.34;4993674;28;20037;-33
2021/12/18 06:28:25;;;;;;;0.40;0.40;;;;;;;22.70;31.59;98498.97;5010572;28;20048;-32
2021/12/18 06:30:51;;;;;;;0.40;0.40;;;;;;;22.70;31.67;98503.34;5011975;28;20423;-29
2021/12/18 06:33:16;;;;;;;0.50;0.50;;;;;;;22.69;31.65;98494.63;5011399;28;20335;-30
2021/12/18 06:35:42;;;;;;;0.50;0.50;;;;;;;22.69;31.53;98507.69;5010453;28;20037;-31
2021/12/18 06:38:07;;;;;;;0.40;0.40;;;;;;;22.67;31.53;98499.03;5010338;28;20443;-30
2021/12/18 06:40:33;;;;;;;0.40;0.40;;;;;;;22.70;31.45;98504.19;4992329;28;20551;-28
2021/12/18 06:42:58;;;;;;;0.40;0.40;;;;;;;22.70;31.57;98501.59;5010345;28;20033;-30
2021/12/18 06:45:24;;;;;;;0.70;0.60;;;;;;;22.70;31.54;98501.59;5010494;28;20510;-28
2021/12/18 06:47:49;;;;;;;0.50;0.50;;;;;;;22.70;31.44;98504.19;5010133;28;20041;-29
2021/12/18 06:50:15;;;;;;;0.45;0.45;;;;;;;22.70;31.68;98506.81;5011239;28;20420;-32
2021/12/18 06:52:40;;;;;;;0.60;0.60;;;;;;;22.69;31.48;98505.09;5008938;28;20843;-31
2021/12/18 06:55:06;;;;;;;0.65;0.60;;;;;;;22.70;31.39;98504.19;4989717;28;20041;-33
2021/12/18 06:57:31;;;;;;;0.57;0.57;;;;;;;22.70;31.42;98504.19;5010835;28;20033;-28
2021/12/18 06:59:57;;;;;;;0.43;0.43;;;;;;;22.69;31.52;98507.69;5010580;28;20029;-31
2021/12/18 07:02:22;;;;;;;0.60;0.60;;;;;;;22.70;31.44;98498.13;5009499;28;20030;-31
2021/12/18 07:04:48;;;;;;;0.60;0.57;;;;;;;22.70;31.65;98509.44;5011374;28;20906;-30
2021/12/18 07:07:13;;;;;;;0.60;0.60;;;;;;;22.70;31.47;98506.81;5011644;28;20693;-30
2021/12/18 07:09:38;;;;;;;0.80;0.68;;;;;;;22.70;31.47;98503.34;5010184;28;20486;-29
2021/12/18 07:12:04;;;;;;;0.30;0.30;;;;;;;22.71;31.39;98508.56;4990426;28;20514;-31
2021/12/18 07:14:29;;;;;;;0.40;0.40;;;;;;;22.69;31.63;98499.88;5008734;28;20113;-28
2021/12/18 07:16:55;;;;;;;0.60;0.60;;;;;;;22.70;31.40;98508.59;4976844;28;20025;-29
2021/12/18 07:19:20;;;;;;;0.40;0.40;;;;;;;22.69;31.46;98502.47;5011072;28;20022;-30
2021/12/18 07:21:46;;;;;;;0.68;0.57;;;;;;;22.69;31.48;98505.09;4995222;28;20026;-31
2021/12/18 07:24:11;;;;;;;0.98;0.90;;;;;;;22.70;31.58;98512.03;4996736;28;20017;-32
2021/12/18 07:26:37;;;;;;;0.88;0.80;;;;;;;22.69;31.52;98512.09;5010666;28;20026;-31
2021/12/18 07:29:02;;;;;;;0.70;0.60;;;;;;;22.70;31.41;98519.88;4992869;28;20080;-31
2021/12/18 07:31:27;;;;;;;0.50;0.50;;;;;;;22.70;31.50;98525.09;5007423;28;20033;-28
2021/12/18 07:33:53;;;;;;;0.70;0.70;;;;;;;22.69;31.43;98520.78;4975850;28;20017;-28
2021/12/18 07:36:18;;;;;;;0.55;0.55;;;;;;;22.70;31.48;98526.88;4991376;28;20068;-30
2021/12/18 07:38:44;;;;;;;0.93;0.70;;;;;;;22.69;31.40;98528.59;5009831;28;20052;-29
2021/12/18 07:41:10;;;;;;;1.10;1.00;;;;;;;22.70;31.58;98530.34;5007903;28;20494;-28
2021/12/18 07:43:36;;;;;;;0.70;0.70;;;;;;;22.70;31.43;98535.56;4977754;28;20091;-29
2021/12/18 07:46:01;;;;;;;1.02;0.63;;;;;;;22.70;31.50;98534.72;5011551;28;20467;-27
2021/12/18 07:48:27;;;;;;;0.68;0.68;;;;;;;22.70;31.26;98535.56;4990784;28;20038;-28
2021/12/18 07:50:52;;;;;;;0.80;0.80;;;;;;;22.69;31.55;98533.84;5009278;28;20033;-31
2021/12/18 07:53:19;;;;;;;0.80;0.80;;;;;;;22.70;31.40;98535.56;5007732;28;20602;-31
2021/12/18 07:55:44;;;;;;;1.20;0.70;;;;;;;22.70;31.51;98530.34;5010402;28;20127;-29
2021/12/18 07:58:10;;;;;;;0.50;0.50;;;;;;;22.70;31.53;98540.78;5010026;28;20502;-29
2021/12/18 08:00:35;;;;;;;1.10;0.98;;;;;;;22.70;31.31;98542.56;5010743;28;20021;-32
2021/12/18 08:03:01;;;;;;;1.23;0.70;;;;;;;22.69;31.56;98540.84;4989958;28;20116;-30
2021/12/18 08:05:26;;;;;;;2.33;0.70;;;;;;;22.64;31.37;98535.66;5007710;28;20519;-29
2021/12/18 08:07:52;;;;;;;1.95;0.80;;;;;;;22.69;31.37;98544.28;5009434;28;20032;-31
2021/12/18 08:10:17;;;;;;;1.38;0.80;;;;;;;22.70;31.56;98542.56;4975819;28;20022;-30
2021/12/18 08:12:42;;;;;;;3.33;0.73;;;;;;;22.70;31.61;98546.00;4990291;28;20578;-28
2021/12/18 08:15:08;;;;;;;0.95;0.60;;;;;;;22.70;31.64;98540.78;5008333;28;20044;-30
2021/12/18 08:17:34;;;;;;;2.53;0.70;;;;;;;22.69;31.53;98544.28;5008408;28;20503;-28
2021/12/18 08:20:00;;;;;;;4.93;0.80;;;;;;;22.69;31.41;98541.69;5008886;28;20025;-30
2021/12/18 08:22:25;;;;;;;0.63;0.60;;;;;;;22.70;31.51;98543.41;5006000;28;20018;-30
2021/12/18 08:24:50;;;;;;;0.82;0.82;;;;;;;22.70;31.33;98540.78;5008978;28;20033;-29
2021/12/18 08:27:16;;;;;;;1.02;0.75;;;;;;;22.70;31.40;98542.56;4990296;28;20025;-30
2021/12/18 08:29:41;;;;;;;2.58;1.02;;;;;;;22.69;31.50;98540.84;5008701;28;20080;-29
2021/12/18 08:32:07;;;;;;;1.35;0.82;;;;;;;22.69;31.58;98536.44;4976881;28;20032;-29
2021/12/18 08:34:32;;;;;;;2.35;0.93;;;;;;;22.69;31.33;98544.28;5008415;28;20029;-31
2021/12/18 08:36:57;;;;;;;1.23;0.88;;;;;;;22.70;31.34;98539.94;5007119;28;20535;-30
2021/12/18 08:39:23;;;;;;;2.25;1.10;;;;;;;22.70;31.47;98534.72;5007993;28;20041;-32
2021/12/18 08:41:48;;;;;;;2.13;0.80;;;;;;;22.70;31.25;98529.47;5008288;28;20018;-29
2021/12/18 08:44:14;;;;;;;0.70;0.70;;;;;;;22.71;31.80;98528.59;5008592;28;20392;-30
2021/12/18 08:46:39;;;;;;;1.02;0.60;;;;;;;22.68;31.56;98521.66;5009029;28;20041;-28
2021/12/18 08:49:05;;;;;;;1.15;0.70;;;;;;;22.69;31.42;98526.00;5007011;28;20048;-30
2021/12/18 08:51:30;;;;;;;1.88;0.70;;;;;;;22.68;31.63;98532.13;4991338;28;20026;-28
2021/12/18 08:53:56;;;;;;;1.73;0.80;;;;;;;22.70;31.38;98532.94;5006129;28;20633;-28
2021/12/18 08:56:21;;;;;;;0.77;0.73;;;;;;;22.69;31.62;98531.22;5004831;28;20033;-28
2021/12/18 08:58:47;;;;;;;0.77;0.65;;;;;;;22.70;31.14;98530.34;5008899;28;20590;-30
2021/12/18 09:01:12;;;;;;;0.68;0.68;;;;;;;22.70;31.39;98524.25;5005349;28;20038;-30
2021/12/18 09:03:38;;;;;;;2.20;0.65;;;;;;;22.69;31.59;98531.22;5008886;28;20077;-32
2021/12/18 09:06:03;;;;;;;1.83;0.70;;;;;;;22.70;31.56;98525.09;5009505;28;20037;-29
2021/12/18 09:08:28;;;;;;;2.05;0.80;;;;;;;22.70;31.67;98529.47;5005646;28;20021;-30
2021/12/18 09:10:54;;;;;;;1.20;0.60;;;;;;;22.69;31.44;98523.38;5008824;28;20634;-30
2021/12/18 09:13:19;;;;;;;0.60;0.60;;;;;;;22.69;31.39;98523.38;5007076;28;20029;-30
2021/12/18 09:15:45;;;;;;;0.63;0.40;;;;;;;22.70;31.56;98522.50;5007894;28;20041;-28
2021/12/18 09:18:10;;;;;;;1.40;0.90;;;;;;;22.70;31.51;98525.09;5010751;28;20091;-29
2021/12/18 09:20:36;;;;;;;1.05;0.75;;;;;;;22.71;31.58;98521.63;4997025;28;20026;-31
2021/12/18 09:23:02;;;;;;;1.25;1.10;;;;;;;22.68;31.60;98516.44;5008521;28;20142;-31
2021/12/18 09:25:27;;;;;;;0.80;0.80;;;;;;;22.69;31.33;98517.31;5006063;28;20022;-30
2021/12/18 09:27:56;;;;;;;1.02;0.90;;;;;;;22.69;31.61;98517.31;4987474;28;20052;-34
2021/12/18 09:30:22;;;;;;;1.10;1.00;;;;;;;22.70;31.35;98512.03;5011944;28;20576;-32
2021/12/18 09:32:47;;;;;;;1.17;1.00;;;;;;;22.69;31.29;98515.53;4989261;28;20033;-31
2021/12/18 09:35:13;;;;;;;0.95;0.95;;;;;;;22.69;31.46;98515.53;5013276;28;20030;-30
2021/12/18 09:37:38;;;;;;;1.33;0.75;;;;;;;22.69;31.28;98507.69;5013092;28;20144;-36
2021/12/18 09:40:05;;;;;;;0.80;0.60;;;;;;;22.70;31.34;98514.66;5013561;28;20061;-30
2021/12/18 09:42:30;;;;;;;1.15;0.70;;;;;;;22.69;31.58;98512.94;5011061;28;20430;-32
2021/12/18 09:44:56;;;;;;;0.57;0.57;;;;;;;22.70;31.45;98508.59;5011962;28;20037;-30
2021/12/18 09:47:21;;;;;;;1.30;0.80;;;;;;;22.69;31.53;98506.84;5000899;28;20113;-30
2021/12/18 09:49:47;;;;;;;1.55;0.75;;;;;;;22.70;31.51;98508.59;5010814;28;20033;-29
2021/12/18 09:52:12;;;;;;;0.70;0.70;;;;;;;22.69;31.41;98502.47;5006844;28;20025;-31
2021/12/18 09:54:38;;;;;;;0.47;0.47;;;;;;;22.69;31.45;98494.63;5012284;28;20061;-28
2021/12/18 09:57:03;;;;;;;1.45;0.80;;;;;;;22.69;31.50;98499.03;5012021;28;20499;-30
2021/12/18 09:59:29;;;;;;;1.05;0.88;;;;;;;22.68;31.38;98500.75;5012129;28;20037;-28
2021/12/18 10:01:54;;;;;;;2.72;1.00;;;;;;;22.67;31.37;98491.19;4990458;28;20026;-32
2021/12/18 10:04:27;;;;;;;0.75;0.68;;;;;;;22.68;31.43;98498.16;5012065;28;20029;-32
2021/12/18 10:06:52;;;;;;;1.98;0.90;;;;;;;22.69;31.42;98496.41;5010773;28;20461;-28
2021/12/18 10:09:17;;;;;;;1.02;0.70;;;;;;;22.69;31.54;98491.19;5009225;28;20053;-31
2021/12/18 10:11:46;;;;;;;0.75;0.75;;;;;;;22.70;31.41;98495.50;5011252;28;20025;-28
2021/12/18 10:14:12;;;;;;;1.42;0.90;;;;;;;22.68;31.34;98490.31;4992449;28;20278;-29
2021/12/18 10:16:56;;;;;;;1.38;0.70;;;;;;;22.68;31.42;98490.31;5008636;28;20739;-32
2021/12/18 10:19:32;;;;;;;0.70;0.70;;;;;;;22.68;31.41;98479.84;5011720;28;20040;-29
2021/12/18 10:22:07;;;;;;;1.10;0.65;;;;;;;22.69;31.54;98484.19;5009795;28;20025;-33
2021/12/18 10:24:34;;;;;;;0.80;0.70;;;;;;;22.68;31.60;98474.63;5010888;28;20029;-29
2021/12/18 10:27:00;;;;;;;0.90;0.70;;;;;;;22.69;31.53;98475.50;4997949;28;20031;-28
2021/12/18 10:29:28;;;;;;;0.60;0.50;;;;;;;22.69;31.51;98475.50;5009950;28;20018;-29
2021/12/18 10:31:54;;;;;;;1.23;0.60;;;;;;;22.69;31.66;98476.34;5011473;28;20130;-28
2021/12/18 10:34:23;;;;;;;1.02;0.65;;;;;;;22.69;31.62;98476.34;5010491;28;20399;-28
2021/12/18 10:37:10;;;;;;;0.32;0.32;;;;;;;22.69;31.52;98475.50;5009034;28;20034;-30
2021/12/18 10:39:36;;;;;;;1.05;0.80;;;;;;;22.68;31.56;98469.41;5010475;28;20025;-30
2021/12/18 10:42:21;;;;;;;0.98;0.73;;;;;;;22.68;31.60;98469.41;5010767;28;20600;-28
2021/12/18 10:45:16;;;;;;;0.73;0.73;;;;;;;22.69;31.60;98465.03;5008989;28;20025;-31
2021/12/18 10:47:59;;;;;;;0.82;0.60;;;;;;;22.68;31.40;98464.16;5011078;28;20080;-28
2021/12/18 10:50:32;;;;;;;0.57;0.57;;;;;;;22.69;31.63;98455.44;5007097;28;20033;-28
2021/12/18 10:53:09;;;;;;;0.35;0.35;;;;;;;22.67;31.52;98462.44;5008662;28;20037;-28
2021/12/18 10:55:36;;;;;;;0.80;0.80;;;;;;;22.69;31.54;98465.88;5007282;28;20702;-29
2021/12/18 10:58:03;;;;;;;0.43;0.43;;;;;;;22.69;31.64;98459.81;5011371;28;20129;-29
2021/12/18 11:00:32;;;;;;;0.50;0.50;;;;;;;22.67;31.55;98457.22;5010679;28;20036;-29
2021/12/18 11:02:57;;;;;;;0.50;0.50;;;;;;;22.69;31.47;98455.44;5010087;28;20014;-29
2021/12/18 11:05:23;;;;;;;0.40;0.40;;;;;;;22.69;31.51;98459.81;5005018;28;20394;-28
2021/12/18 11:08:06;;;;;;;0.63;0.60;;;;;;;22.68;31.54;98445.88;5010788;28;20040;-29
2021/12/18 11:15:50;;;;;;;0.95;0.70;;;;;;;22.69;31.59;98438.91;4980763;28;20439;-29
2021/12/18 11:18:15;;;;;;;0.60;0.50;;;;;;;22.68;31.63;98432.81;4994569;28;20029;-29
2021/12/18 11:20:40;;;;;;;0.73;0.50;;;;;;;22.69;31.60;98434.53;4992073;28;20025;-32
2021/12/18 11:23:06;;;;;;;0.60;0.60;;;;;;;22.68;31.57;98432.81;4978840;28;20041;-29
2021/12/18 11:25:31;;;;;;;0.73;0.65;;;;;;;22.69;31.66;98424.06;4992501;28;20025;-28
2021/12/18 11:27:57;;;;;;;0.60;0.60;;;;;;;22.69;31.56;98418.84;4989219;28;20205;-31
2021/12/18 11:30:22;;;;;;;1.00;0.70;;;;;;;22.70;31.71;98419.72;4989676;28;20034;-31
2021/12/18 11:32:54;;;;;;;0.82;0.60;;;;;;;22.69;31.52;98408.41;4995258;28;20030;-30
2021/12/18 11:35:20;;;;;;;0.70;0.70;;;;;;;22.68;31.52;98406.69;4992943;28;20625;-31
2021/12/18 11:37:49;;;;;;;0.80;0.80;;;;;;;22.69;31.60;98408.41;4991680;28;20021;-34
2021/12/18 11:40:16;;;;;;;0.77;0.68;;;;;;;22.69;31.59;98411.00;5009124;28;20041;-29
2021/12/18 11:42:42;;;;;;;0.60;0.60;;;;;;;22.70;31.38;98407.50;4977525;28;20022;-30
2021/12/18 11:45:09;;;;;;;1.23;0.90;;;;;;;22.69;31.63;98403.16;5009150;28;20044;-32
2021/12/18 11:47:40;;;;;;;0.98;0.80;;;;;;;22.69;31.33;98403.16;4961115;28;20049;-30
2021/12/18 11:50:17;;;;;;;;;;;;;;;22.69;31.48;98397.94;5009774;28;20037;-32
2021/12/18 11:53:01;;;;;;;1.00;0.73;;;;;;;22.69;31.56;98405.78;5008289;28;19928;-28
2021/12/18 11:55:29;;;;;;;0.60;0.60;;;;;;;22.69;31.52;98399.72;5008180;28;20025;-29
2021/12/18 11:58:00;;;;;;;0.60;0.60;;;;;;;22.68;31.66;98401.44;4992506;28;20033;-29
2021/12/18 12:00:36;;;;;;;0.68;0.60;;;;;;;22.68;31.68;98393.63;5008125;28;20030;-31
2021/12/18 12:03:06;;;;;;;0.57;0.57;;;;;;;22.69;31.38;98392.72;4992516;28;20384;-29
2021/12/18 12:05:34;;;;;;;0.93;0.80;;;;;;;22.68;31.51;98385.78;5008704;28;20061;-28
2021/12/18 12:08:18;;;;;;;0.70;0.70;;;;;;;22.69;31.60;98387.50;5008034;28;20030;-27
2021/12/18 12:11:17;;;;;;;2.08;0.60;;;;;;;22.69;31.66;98387.50;5005500;28;20057;-29
2021/12/18 12:14:00;;;;;;;0.60;0.60;;;;;;;22.67;31.72;98378.81;4951910;28;20573;-28
2021/12/18 12:16:44;;;;;;;0.40;0.40;;;;;;;22.68;31.57;98375.31;4978033;28;20557;-30